Time;durP1;ratioP1;P1;durP2;ratioP2;P2;SDS_P1;SDS_P2;PMS_P1;PMS_P2;Temp;Humidity;BMP_temperature;BMP_pressure;BME280_temperature;BME280_humidity;BME280_pressure;Samples;Min_cycle;Max_cycle;Signal;HPM_P1;HPM_P2
2023/10/08 00:01:13;;;;;;;6.55;3.60;;;12.60;99.90;;;;;;4996635;28;20061;-73
2023/10/08 00:03:40;;;;;;;7.85;4.07;;;12.60;99.90;;;;;;4996637;28;20030;-73
2023/10/08 00:06:13;;;;;;;9.80;4.57;;;12.60;99.90;;;;;;4996168;28;20054;-73
2023/10/08 00:08:39;;;;;;;8.68;4.25;;;12.50;99.90;;;;;;4980276;28;20098;-73
2023/10/08 00:11:06;;;;;;;10.00;4.18;;;12.40;99.90;;;;;;4996413;28;20022;-73
2023/10/08 00:13:39;;;;;;;9.07;4.20;;;12.30;99.90;;;;;;4996285;28;20026;-73
2023/10/08 00:16:09;;;;;;;8.15;4.15;;;12.30;99.90;;;;;;4996112;28;20073;-73
2023/10/08 00:18:37;;;;;;;9.93;4.72;;;12.30;99.90;;;;;;4995424;28;20101;-73
2023/10/08 00:23:35;;;;;;;8.63;3.80;;;12.30;99.90;;;;;;4996430;28;20471;-73
2023/10/08 00:26:04;;;;;;;9.07;4.55;;;12.30;99.90;;;;;;4995774;28;20069;-73
2023/10/08 00:28:31;;;;;;;9.45;4.38;;;12.30;99.90;;;;;;4995874;28;20113;-73
2023/10/08 00:31:05;;;;;;;8.40;4.28;;;12.20;99.90;;;;;;4978273;28;20509;-72
2023/10/08 00:33:31;;;;;;;9.38;4.68;;;12.20;99.90;;;;;;4979609;28;20026;-74
2023/10/08 00:35:56;;;;;;;9.02;4.35;;;12.20;99.90;;;;;;4995228;28;20084;-74
2023/10/08 00:38:25;;;;;;;8.55;4.57;;;12.20;99.90;;;;;;4995468;28;20496;-74
2023/10/08 00:40:55;;;;;;;10.18;4.28;;;12.20;99.90;;;;;;4995183;28;20112;-74
2023/10/08 00:43:36;;;;;;;7.50;3.97;;;12.20;99.90;;;;;;4978015;28;20046;-74
2023/10/08 00:46:04;;;;;;;9.40;4.10;;;12.20;99.90;;;;;;4975979;28;20019;-74
2023/10/08 00:48:36;;;;;;;8.82;3.92;;;12.30;99.90;;;;;;4992972;28;20033;-74
2023/10/08 00:54:05;;;;;;;9.40;4.35;;;12.40;99.90;;;;;;4990649;28;20034;-74
2023/10/08 00:59:21;;;;;;;7.97;4.00;;;12.40;99.90;;;;;;4995014;28;20034;-74
2023/10/08 01:01:51;;;;;;;7.70;3.83;;;12.40;99.90;;;;;;4993905;28;20660;-74
2023/10/08 01:04:27;;;;;;;9.38;4.15;;;12.40;99.90;;;;;;4994601;28;20379;-74
2023/10/08 01:06:59;;;;;;;7.80;3.80;;;12.40;99.90;;;;;;4994091;28;20096;-73
2023/10/08 01:09:35;;;;;;;7.55;4.05;;;12.40;99.90;;;;;;4995018;28;20057;-74
2023/10/08 01:12:33;;;;;;;8.45;3.75;;;12.40;99.90;;;;;;4977952;28;20030;-73
2023/10/08 01:18:01;;;;;;;7.70;3.47;;;12.40;99.90;;;;;;4954418;29;20434;-74
2023/10/08 01:20:34;;;;;;;9.05;4.18;;;12.40;99.90;;;;;;4973212;28;20403;-74
2023/10/08 01:23:13;;;;;;;7.93;4.10;;;12.40;99.90;;;;;;4994918;28;20074;-74
2023/10/08 01:25:41;;;;;;;7.38;4.00;;;12.40;99.90;;;;;;4994897;28;20403;-74
2023/10/08 01:28:18;;;;;;;7.53;3.38;;;12.30;99.90;;;;;;4994759;28;20018;-74
2023/10/08 01:30:47;;;;;;;7.80;3.85;;;12.30;99.90;;;;;;4993865;28;20014;-74
2023/10/08 01:33:15;;;;;;;8.20;4.00;;;12.40;99.90;;;;;;4994591;28;20027;-74
2023/10/08 01:35:42;;;;;;;9.07;3.95;;;12.40;99.90;;;;;;4994492;28;20022;-74
2023/10/08 01:38:13;;;;;;;8.70;4.10;;;12.40;99.90;;;;;;4994491;28;20576;-74
2023/10/08 01:40:42;;;;;;;8.13;4.20;;;12.40;99.90;;;;;;4994556;28;20383;-74
2023/10/08 01:43:09;;;;;;;8.65;4.55;;;12.40;99.90;;;;;;4994451;28;20027;-74
2023/10/08 01:45:42;;;;;;;9.82;4.28;;;12.30;99.90;;;;;;4993780;28;20101;-74
2023/10/08 01:48:11;;;;;;;8.88;4.13;;;12.20;99.90;;;;;;4994741;28;20031;-74
2023/10/08 01:50:37;;;;;;;8.95;4.57;;;12.20;99.90;;;;;;4976986;28;20449;-74
2023/10/08 01:53:06;;;;;;;8.07;4.35;;;12.10;99.90;;;;;;4976940;28;20372;-74
2023/10/08 01:55:45;;;;;;;9.23;4.05;;;12.20;99.90;;;;;;4977480;28;20372;-75
2023/10/08 01:58:14;;;;;;;7.30;3.85;;;12.20;99.90;;;;;;4994846;28;20019;-74
2023/10/08 02:00:48;;;;;;;6.72;3.65;;;12.20;99.90;;;;;;4994211;28;20015;-74
2023/10/08 02:03:16;;;;;;;7.50;3.40;;;12.20;99.90;;;;;;4994416;28;20026;-74
2023/10/08 02:05:45;;;;;;;7.90;4.10;;;12.30;99.90;;;;;;4994410;28;20019;-74
2023/10/08 02:08:12;;;;;;;9.25;4.40;;;12.20;99.90;;;;;;4994219;28;20023;-74
2023/10/08 02:10:40;;;;;;;9.80;4.63;;;12.20;99.90;;;;;;4994067;28;20035;-74
2023/10/08 02:13:09;;;;;;;8.95;4.07;;;12.30;99.90;;;;;;4994064;28;20026;-74
2023/10/08 02:15:36;;;;;;;8.38;4.47;;;12.30;99.90;;;;;;4994102;28;20058;-74
2023/10/08 02:18:03;;;;;;;8.45;4.38;;;12.30;99.90;;;;;;4994023;28;20027;-74
2023/10/08 02:20:29;;;;;;;9.93;4.18;;;12.20;99.90;;;;;;4994020;28;20034;-74
2023/10/08 02:22:55;;;;;;;8.75;4.55;;;12.20;99.90;;;;;;4994014;28;20030;-74
2023/10/08 02:25:22;;;;;;;11.35;4.80;;;12.20;99.90;;;;;;4993984;28;20045;-74
2023/10/08 02:27:48;;;;;;;9.93;5.00;;;12.20;99.90;;;;;;4993909;28;20046;-74
2023/10/08 02:30:14;;;;;;;10.25;4.22;;;12.20;99.90;;;;;;4994550;28;20026;-74
2023/10/08 02:32:42;;;;;;;9.88;4.57;;;12.20;99.90;;;;;;4993886;28;20506;-74
2023/10/08 02:35:11;;;;;;;9.85;4.20;;;12.20;99.90;;;;;;4994115;28;20031;-74
2023/10/08 02:37:39;;;;;;;8.43;4.20;;;12.10;99.90;;;;;;4994580;28;20118;-74
2023/10/08 02:40:16;;;;;;;8.88;4.72;;;12.10;99.90;;;;;;4992877;28;20029;-74
2023/10/08 02:42:43;;;;;;;7.93;4.05;;;12.00;99.90;;;;;;4981331;28;20074;-74
2023/10/08 02:45:13;;;;;;;8.75;4.60;;;12.00;99.90;;;;;;4997766;28;20025;-74
2023/10/08 02:47:42;;;;;;;7.88;4.35;;;12.00;99.90;;;;;;4997322;28;20022;-74
2023/10/08 02:50:09;;;;;;;8.65;4.18;;;11.90;99.90;;;;;;4996515;28;20035;-74
2023/10/08 02:52:35;;;;;;;10.73;4.57;;;12.00;99.90;;;;;;4997964;28;20031;-74
2023/10/08 02:55:00;;;;;;;7.10;3.47;;;11.90;99.90;;;;;;4997473;28;20398;-74
2023/10/08 02:57:29;;;;;;;7.55;3.85;;;11.90;99.90;;;;;;4997434;28;20037;-74
2023/10/08 02:59:55;;;;;;;8.48;3.65;;;12.00;99.90;;;;;;4998040;28;20465;-74
2023/10/08 03:02:21;;;;;;;8.98;4.40;;;11.90;99.90;;;;;;4997500;28;20110;-74
2023/10/08 03:04:50;;;;;;;10.75;4.30;;;11.90;99.90;;;;;;4997481;28;20471;-74
2023/10/08 03:07:33;;;;;;;7.50;3.97;;;11.90;99.90;;;;;;4997474;28;20049;-74
2023/10/08 03:10:06;;;;;;;8.38;4.13;;;11.90;99.90;;;;;;4997376;28;20061;-74
2023/10/08 03:12:36;;;;;;;7.40;3.45;;;11.90;99.90;;;;;;4997311;28;20022;-74
2023/10/08 03:17:51;;;;;;;8.32;4.20;;;12.00;99.90;;;;;;4997803;28;20085;-74
2023/10/08 03:20:37;;;;;;;8.65;3.85;;;12.00;99.90;;;;;;4997380;28;20026;-74
2023/10/08 03:23:07;;;;;;;8.45;3.95;;;12.00;99.90;;;;;;4997523;28;20442;-74
2023/10/08 03:25:41;;;;;;;8.98;4.10;;;12.00;99.90;;;;;;4997151;28;20034;-74
2023/10/08 03:28:08;;;;;;;9.30;4.30;;;12.00;99.90;;;;;;4980011;28;20035;-74
2023/10/08 03:30:50;;;;;;;10.30;4.50;;;12.00;99.90;;;;;;4980034;28;20030;-74
2023/10/08 03:33:26;;;;;;;7.80;3.97;;;12.00;99.90;;;;;;4998023;28;20394;-74
2023/10/08 03:35:52;;;;;;;8.27;4.18;;;12.00;99.90;;;;;;4996814;28;20021;-74
2023/10/08 03:38:28;;;;;;;8.40;3.55;;;12.00;99.90;;;;;;4996827;28;20030;-74
2023/10/08 03:41:00;;;;;;;10.02;4.13;;;12.10;99.90;;;;;;4996835;28;20019;-74
2023/10/08 03:43:34;;;;;;;7.70;3.80;;;12.10;99.90;;;;;;4979359;28;20469;-74
2023/10/08 03:46:05;;;;;;;9.02;3.78;;;12.10;99.90;;;;;;4996797;28;20085;-74
2023/10/08 03:48:36;;;;;;;9.10;4.15;;;12.10;99.90;;;;;;4997142;28;20023;-74
2023/10/08 03:51:06;;;;;;;;;;;12.10;99.90;;;;;;4997136;28;20026;-74
2023/10/08 03:53:57;;;;;;;7.28;3.80;;;12.00;99.90;;;;;;4995343;28;20266;-74
2023/10/08 03:56:20;;;;;;;11.55;3.83;;;12.00;99.90;;;;;;4996270;28;20030;-74
2023/10/08 03:58:46;;;;;;;8.00;4.53;;;12.00;99.90;;;;;;4979014;28;20027;-74
2023/10/08 04:01:18;;;;;;;8.57;4.13;;;12.00;99.90;;;;;;4979045;28;20027;-74
2023/10/08 04:06:16;;;;;;;9.48;3.80;;;12.00;99.90;;;;;;4996619;28;20070;-74
2023/10/08 04:08:58;;;;;;;8.52;4.78;;;12.00;99.90;;;;;;4996298;28;20064;-74
2023/10/08 04:11:30;;;;;;;8.05;4.03;;;12.10;99.90;;;;;;4996277;28;20027;-74
2023/10/08 04:13:59;;;;;;;9.02;4.05;;;12.10;99.90;;;;;;4978622;28;20031;-74
2023/10/08 04:16:27;;;;;;;9.23;4.22;;;12.10;99.90;;;;;;4996462;28;20073;-74
2023/10/08 04:18:56;;;;;;;9.25;4.60;;;12.10;99.90;;;;;;4995967;28;20050;-73
2023/10/08 04:21:27;;;;;;;10.70;5.43;;;12.10;99.90;;;;;;4978457;28;20023;-74
2023/10/08 04:23:53;;;;;;;10.02;5.22;;;12.10;99.90;;;;;;4995874;28;20037;-73
2023/10/08 04:26:25;;;;;;;9.82;4.82;;;12.10;99.90;;;;;;4995682;28;20038;-74
2023/10/08 04:28:57;;;;;;;9.80;4.28;;;12.10;99.90;;;;;;4995692;28;20039;-74
2023/10/08 04:31:38;;;;;;;8.52;4.20;;;12.10;99.90;;;;;;4995744;28;20030;-74
2023/10/08 04:34:09;;;;;;;9.27;4.30;;;12.10;99.90;;;;;;4995774;28;20085;-74
2023/10/08 04:36:38;;;;;;;8.30;4.28;;;12.10;99.90;;;;;;4995926;28;20031;-73
2023/10/08 04:39:13;;;;;;;7.03;3.80;;;12.10;99.90;;;;;;4995681;28;20105;-73
2023/10/08 04:41:42;;;;;;;8.23;3.78;;;12.10;99.90;;;;;;4995756;28;20057;-74
2023/10/08 04:44:15;;;;;;;7.72;4.07;;;12.00;99.90;;;;;;4977872;28;20048;-73
2023/10/08 04:46:48;;;;;;;8.43;4.10;;;12.00;99.90;;;;;;4995088;28;20026;-73
2023/10/08 04:51:56;;;;;;;10.88;5.50;;;12.00;99.90;;;;;;4995448;28;20114;-73
2023/10/08 04:54:23;;;;;;;10.10;5.72;;;12.00;99.90;;;;;;4994588;28;20046;-73
2023/10/08 04:56:49;;;;;;;12.40;6.70;;;12.00;99.90;;;;;;4995181;28;20023;-73
2023/10/08 04:59:20;;;;;;;11.60;6.30;;;12.00;99.90;;;;;;4977778;28;20022;-73
2023/10/08 05:01:56;;;;;;;12.98;6.05;;;12.00;99.90;;;;;;4978628;28;20049;-73
2023/10/08 05:04:32;;;;;;;11.13;6.18;;;12.00;99.90;;;;;;4994784;28;20513;-74
2023/10/08 05:07:16;;;;;;;10.77;6.03;;;12.00;99.90;;;;;;4980263;28;20399;-73
2023/10/08 05:09:52;;;;;;;11.02;6.70;;;11.90;99.90;;;;;;5011348;28;20381;-73
2023/10/08 05:20:19;;;;;;;9.23;4.93;;;12.00;99.90;;;;;;5014077;28;20478;-73
2023/10/08 05:22:55;;;;;;;9.48;5.38;;;12.00;99.90;;;;;;5012704;28;20041;-73
2023/10/08 05:30:16;;;;;;;11.15;4.97;;;11.90;99.90;;;;;;5014093;28;20101;-72
2023/10/08 05:33:06;;;;;;;9.43;4.50;;;11.90;99.90;;;;;;5013722;28;20536;-74
2023/10/08 05:49:02;;;;;;;6.90;3.22;;;11.90;99.90;;;;;;4986402;28;20050;-73
2023/10/08 05:51:44;;;;;;;6.72;3.78;;;11.90;99.90;;;;;;4990304;28;20022;-73
2023/10/08 06:02:29;;;;;;;8.02;3.50;;;11.90;99.90;;;;;;4998950;28;20042;-74
2023/10/08 06:13:29;;;;;;;8.27;4.05;;;11.90;99.90;;;;;;4992768;28;20054;-74
2023/10/08 06:18:25;;;;;;;9.15;4.15;;;12.00;99.90;;;;;;4987587;28;20542;-74
2023/10/08 06:20:55;;;;;;;6.63;3.53;;;12.00;99.90;;;;;;4987836;28;20471;-74
2023/10/08 06:23:25;;;;;;;8.70;4.32;;;12.00;99.90;;;;;;4993900;28;20040;-74
2023/10/08 06:26:05;;;;;;;7.63;3.50;;;12.10;99.90;;;;;;4993656;28;20483;-74
2023/10/08 06:28:34;;;;;;;8.07;4.43;;;12.10;99.90;;;;;;4993791;28;20542;-74
2023/10/08 06:31:01;;;;;;;8.63;4.35;;;12.10;99.90;;;;;;4993474;28;20110;-73
2023/10/08 06:33:33;;;;;;;9.25;4.18;;;12.10;99.90;;;;;;4974691;28;20034;-73
2023/10/08 06:36:05;;;;;;;9.23;4.88;;;12.10;99.90;;;;;;4993350;28;20030;-73
2023/10/08 06:38:34;;;;;;;9.18;4.32;;;12.10;99.90;;;;;;4990715;28;20077;-73
2023/10/08 06:41:17;;;;;;;10.70;5.85;;;12.10;99.90;;;;;;4992591;28;20073;-73
2023/10/08 06:43:49;;;;;;;7.30;4.57;;;12.20;99.90;;;;;;4993515;28;20102;-73
2023/10/08 06:46:18;;;;;;;11.63;5.63;;;12.20;99.90;;;;;;4975416;28;20050;-73
2023/10/08 06:48:46;;;;;;;8.77;4.55;;;12.20;99.90;;;;;;4992554;28;20118;-73
2023/10/08 06:51:13;;;;;;;12.43;5.43;;;12.20;99.90;;;;;;4991688;28;20057;-73
2023/10/08 06:53:46;;;;;;;9.43;5.22;;;12.20;99.90;;;;;;4993143;28;20038;-73
2023/10/08 06:56:13;;;;;;;9.93;4.97;;;12.20;99.90;;;;;;4987335;28;20029;-73
2023/10/08 06:58:45;;;;;;;8.50;5.07;;;12.20;99.90;;;;;;4992286;28;20041;-73
2023/10/08 07:01:13;;;;;;;11.77;6.00;;;12.20;99.90;;;;;;4992477;28;20105;-73
2023/10/08 07:03:38;;;;;;;10.13;5.72;;;12.20;99.90;;;;;;4992723;28;20078;-73
2023/10/08 07:06:16;;;;;;;11.10;6.30;;;12.30;99.90;;;;;;4991774;28;20426;-73
2023/10/08 07:08:47;;;;;;;13.50;7.50;;;12.30;99.90;;;;;;4992014;28;20035;-73
2023/10/08 07:11:13;;;;;;;19.15;9.10;;;12.30;99.90;;;;;;4989902;28;20030;-73
2023/10/08 07:13:41;;;;;;;16.08;8.88;;;12.30;99.90;;;;;;4973861;28;20073;-73
2023/10/08 07:16:11;;;;;;;18.15;8.80;;;12.30;99.90;;;;;;4974187;28;20114;-73
2023/10/08 07:18:38;;;;;;;16.13;7.63;;;12.40;99.90;;;;;;4991432;28;20046;-73
2023/10/08 07:21:11;;;;;;;16.58;8.35;;;12.40;99.90;;;;;;4993086;28;20038;-73
2023/10/08 07:23:53;;;;;;;13.30;7.78;;;12.40;99.90;;;;;;4993958;28;20463;-73
2023/10/08 07:26:23;;;;;;;20.38;6.18;;;12.50;99.90;;;;;;4995739;28;20037;-73
2023/10/08 07:28:51;;;;;;;13.17;7.27;;;12.60;99.90;;;;;;5016524;28;20026;-73
2023/10/08 07:31:22;;;;;;;13.00;6.47;;;12.70;99.90;;;;;;4997760;28;20022;-73
2023/10/08 07:33:55;;;;;;;13.50;5.47;;;12.70;99.90;;;;;;5016546;28;20037;-73
2023/10/08 07:36:29;;;;;;;13.05;5.32;;;12.80;99.90;;;;;;5016435;28;20084;-73
2023/10/08 07:38:54;;;;;;;10.07;5.10;;;12.80;99.90;;;;;;5016422;28;20053;-73
2023/10/08 07:41:21;;;;;;;11.82;6.15;;;12.90;99.90;;;;;;5003305;28;20068;-72
2023/10/08 07:43:58;;;;;;;12.82;6.47;;;13.00;99.90;;;;;;4995623;28;20062;-72
2023/10/08 07:46:27;;;;;;;13.15;6.00;;;13.10;99.90;;;;;;4979294;28;20491;-71
2023/10/08 07:48:58;;;;;;;12.32;6.30;;;13.10;99.90;;;;;;4996738;28;20030;-72
2023/10/08 07:51:23;;;;;;;11.13;5.57;;;13.20;99.90;;;;;;4978634;28;20439;-72
2023/10/08 07:53:54;;;;;;;13.88;6.05;;;13.30;99.90;;;;;;4995825;28;20038;-72
2023/10/08 07:56:20;;;;;;;10.68;4.95;;;13.30;99.90;;;;;;4996785;28;20383;-71
2023/10/08 07:58:47;;;;;;;11.15;5.97;;;13.40;99.90;;;;;;4996500;28;20678;-72
2023/10/08 08:01:14;;;;;;;11.30;5.05;;;13.40;99.90;;;;;;4996402;28;20364;-72
2023/10/08 08:03:41;;;;;;;13.73;5.55;;;13.40;99.90;;;;;;4996852;28;20030;-71
2023/10/08 08:06:09;;;;;;;11.10;5.50;;;13.50;99.90;;;;;;4978846;28;20057;-72
2023/10/08 08:08:38;;;;;;;9.38;4.90;;;13.60;99.90;;;;;;4996287;28;20030;-72
2023/10/08 08:11:17;;;;;;;12.68;5.03;;;13.60;99.90;;;;;;4996243;28;20026;-72
2023/10/08 08:13:43;;;;;;;14.20;6.10;;;13.60;99.90;;;;;;4996411;28;20026;-72
2023/10/08 08:16:18;;;;;;;15.00;5.55;;;13.70;99.90;;;;;;4995954;28;20438;-72
2023/10/08 08:18:45;;;;;;;11.68;5.30;;;13.70;99.90;;;;;;4996414;28;20023;-72
2023/10/08 08:21:15;;;;;;;14.60;5.55;;;13.80;99.90;;;;;;4996046;28;20022;-72
2023/10/08 08:23:48;;;;;;;11.32;4.65;;;13.80;99.90;;;;;;4996246;28;20141;-72
2023/10/08 08:26:28;;;;;;;11.75;5.15;;;13.80;99.90;;;;;;4996084;28;20411;-72
2023/10/08 08:29:01;;;;;;;11.50;5.03;;;13.90;99.90;;;;;;4978621;28;20034;-71
2023/10/08 08:31:35;;;;;;;13.10;4.80;;;13.90;99.90;;;;;;4996456;28;20030;-72
2023/10/08 08:34:13;;;;;;;9.63;4.75;;;14.00;99.90;;;;;;4978274;28;20509;-72
2023/10/08 08:36:46;;;;;;;8.95;4.47;;;14.00;99.90;;;;;;4995747;28;20027;-72
2023/10/08 08:39:17;;;;;;;10.35;4.10;;;14.10;99.90;;;;;;4995463;28;20018;-72
2023/10/08 08:41:43;;;;;;;13.45;4.88;;;14.20;99.90;;;;;;4995980;28;20109;-72
2023/10/08 08:44:09;;;;;;;11.55;4.95;;;14.20;99.90;;;;;;4995574;28;20077;-72
2023/10/08 08:46:37;;;;;;;9.93;4.28;;;14.30;99.90;;;;;;4995486;28;20034;-72
2023/10/08 08:49:12;;;;;;;11.30;4.50;;;14.40;99.90;;;;;;4995525;28;20031;-72
2023/10/08 08:51:38;;;;;;;12.73;5.20;;;14.50;99.90;;;;;;4995773;28;20054;-72
2023/10/08 08:54:08;;;;;;;8.63;4.18;;;14.50;99.90;;;;;;4995600;28;20026;-72
2023/10/08 08:56:38;;;;;;;10.40;4.72;;;14.60;99.90;;;;;;4995352;28;20418;-72
2023/10/08 08:59:13;;;;;;;10.67;4.60;;;14.70;99.90;;;;;;4995316;28;20029;-71
2023/10/08 09:01:41;;;;;;;12.30;4.72;;;14.80;99.90;;;;;;4995848;28;20057;-72
2023/10/08 09:04:07;;;;;;;9.50;4.50;;;14.90;99.90;;;;;;4995214;28;20026;-72
2023/10/08 09:06:40;;;;;;;11.75;4.20;;;15.00;99.90;;;;;;4995368;28;20040;-72
2023/10/08 09:09:40;;;;;;;11.18;4.03;;;15.10;99.90;;;;;;4996267;28;20344;-73
2023/10/08 09:11:59;;;;;;;9.70;4.38;;;15.20;99.90;;;;;;4992309;28;20057;-73
2023/10/08 09:14:27;;;;;;;10.43;3.90;;;15.30;99.90;;;;;;4977586;28;20033;-74
2023/10/08 09:17:04;;;;;;;9.50;4.05;;;15.40;99.90;;;;;;4999041;28;20040;-73
2023/10/08 09:19:35;;;;;;;10.25;4.28;;;15.60;99.90;;;;;;5009755;28;20019;-73
2023/10/08 09:22:03;;;;;;;10.32;4.53;;;15.70;99.90;;;;;;4994610;28;20045;-73
2023/10/08 09:24:30;;;;;;;12.77;4.75;;;15.80;99.90;;;;;;4994098;28;20470;-74
2023/10/08 09:26:57;;;;;;;18.23;5.10;;;15.90;99.90;;;;;;4993976;28;20133;-73
2023/10/08 09:29:24;;;;;;;8.73;4.00;;;15.90;99.90;;;;;;4993645;28;20035;-73
2023/10/08 09:31:58;;;;;;;9.45;4.18;;;16.00;99.90;;;;;;4994612;28;20383;-73
2023/10/08 09:34:29;;;;;;;14.05;4.85;;;16.10;99.90;;;;;;4977152;28;20030;-73
2023/10/08 09:36:55;;;;;;;;;;;16.10;99.90;;;;;;4994321;28;20022;-73
2023/10/08 09:39:25;;;;;;;10.65;4.82;;;16.10;99.90;;;;;;4994435;28;19956;-74
2023/10/08 09:41:53;;;;;;;15.27;5.00;;;16.10;99.90;;;;;;4994410;28;20018;-73
2023/10/08 09:44:20;;;;;;;16.08;5.50;;;16.20;99.90;;;;;;4994189;28;20041;-74
2023/10/08 09:46:55;;;;;;;10.27;4.80;;;16.20;99.90;;;;;;4963904;28;20074;-74
2023/10/08 09:49:36;;;;;;;14.85;5.57;;;16.20;99.90;;;;;;4976818;28;20030;-74
2023/10/08 09:52:05;;;;;;;14.10;5.43;;;16.20;99.90;;;;;;4975790;28;20031;-74
2023/10/08 09:54:40;;;;;;;11.38;4.28;;;16.30;99.90;;;;;;4993461;28;20317;-74
2023/10/08 09:57:06;;;;;;;12.13;5.20;;;16.30;99.90;;;;;;4994146;28;20093;-74
2023/10/08 09:59:34;;;;;;;9.98;4.38;;;16.30;99.90;;;;;;4993997;28;20054;-74
2023/10/08 10:02:02;;;;;;;14.35;5.40;;;16.40;99.90;;;;;;4993726;28;20022;-74
2023/10/08 10:04:34;;;;;;;12.55;4.97;;;16.40;99.90;;;;;;4993536;28;20030;-74
2023/10/08 10:07:12;;;;;;;13.95;5.45;;;16.40;99.90;;;;;;4992754;28;20061;-74
2023/10/08 10:09:39;;;;;;;13.70;5.10;;;16.40;99.90;;;;;;4992922;28;20030;-74
2023/10/08 10:12:09;;;;;;;12.13;5.32;;;16.50;99.90;;;;;;4976522;28;20061;-74
2023/10/08 10:14:52;;;;;;;13.02;5.00;;;16.60;99.90;;;;;;4988758;28;20042;-73
2023/10/08 10:17:22;;;;;;;12.27;5.15;;;16.60;99.90;;;;;;4994101;28;20088;-73
2023/10/08 10:19:54;;;;;;;15.60;5.50;;;16.60;99.90;;;;;;4993811;28;20031;-73
2023/10/08 10:22:34;;;;;;;11.75;5.35;;;16.70;99.90;;;;;;4992817;28;20058;-73
2023/10/08 10:25:14;;;;;;;13.75;6.00;;;16.70;99.90;;;;;;4987247;28;20030;-74
2023/10/08 10:28:04;;;;;;;12.10;5.95;;;16.70;99.90;;;;;;4988531;28;20541;-73
2023/10/08 10:30:30;;;;;;;13.23;5.35;;;16.70;99.90;;;;;;4991283;28;20037;-73
2023/10/08 10:32:59;;;;;;;12.85;5.35;;;16.80;99.90;;;;;;4993544;28;20062;-74
2023/10/08 10:35:27;;;;;;;12.60;5.72;;;16.80;99.90;;;;;;4992816;28;20022;-73
2023/10/08 10:37:55;;;;;;;14.88;5.18;;;16.80;99.90;;;;;;4993043;28;20097;-73
2023/10/08 10:40:40;;;;;;;12.65;5.63;;;16.90;99.90;;;;;;4992756;28;20030;-73
2023/10/08 10:43:15;;;;;;;13.32;5.47;;;17.00;99.90;;;;;;4989153;28;20029;-73
2023/10/08 10:45:46;;;;;;;11.27;5.15;;;17.10;99.90;;;;;;4976136;28;20037;-74
2023/10/08 10:48:21;;;;;;;;;;;17.10;99.90;;;;;;4992631;28;20114;-74
2023/10/08 10:51:06;;;;;;;18.58;6.93;;;17.20;99.90;;;;;;4993362;28;20394;-74
2023/10/08 10:56:31;;;;;;;13.27;6.38;;;17.30;99.90;;;;;;4988887;28;20077;-73
2023/10/08 10:59:01;;;;;;;14.35;5.70;;;17.40;99.90;;;;;;4991945;28;20105;-73
2023/10/08 11:01:29;;;;;;;10.60;4.65;;;17.30;99.90;;;;;;4976469;28;20030;-73
2023/10/08 11:03:57;;;;;;;10.50;4.90;;;17.30;99.90;;;;;;4996160;28;20145;-73
2023/10/08 11:06:25;;;;;;;11.88;5.20;;;17.30;99.90;;;;;;4977209;28;20462;-73
2023/10/08 11:08:52;;;;;;;9.57;4.47;;;17.40;99.90;;;;;;4996118;28;20026;-73
2023/10/08 11:11:19;;;;;;;15.55;4.85;;;17.40;99.90;;;;;;4996644;28;20394;-73
2023/10/08 11:13:51;;;;;;;8.73;4.60;;;17.40;99.90;;;;;;4995411;28;20027;-73
2023/10/08 11:16:21;;;;;;;15.10;5.30;;;17.50;99.90;;;;;;4996663;28;20352;-73
2023/10/08 11:18:50;;;;;;;14.75;5.75;;;17.50;99.90;;;;;;4995471;28;20050;-73
2023/10/08 11:21:16;;;;;;;19.75;6.28;;;17.50;99.90;;;;;;4995407;28;20121;-73
2023/10/08 11:23:53;;;;;;;16.63;5.55;;;17.50;99.90;;;;;;4978645;28;20030;-73
2023/10/08 11:26:21;;;;;;;14.35;5.72;;;17.50;99.90;;;;;;4994822;28;20371;-73
2023/10/08 11:28:47;;;;;;;16.40;5.32;;;17.50;99.90;;;;;;4996257;28;20018;-73
2023/10/08 11:31:20;;;;;;;15.70;5.40;;;17.50;99.90;;;;;;4995726;28;20031;-73
2023/10/08 11:33:56;;;;;;;12.75;5.78;;;17.50;99.90;;;;;;4996001;28;20026;-74
2023/10/08 11:36:29;;;;;;;9.38;5.00;;;17.50;99.90;;;;;;4996644;28;20053;-74
2023/10/08 11:39:06;;;;;;;15.40;5.55;;;17.50;99.90;;;;;;4991960;28;20101;-74
2023/10/08 11:41:44;;;;;;;14.48;5.80;;;17.50;99.90;;;;;;4995363;28;20046;-73
2023/10/08 11:44:13;;;;;;;14.15;6.15;;;17.50;99.90;;;;;;4978722;28;20042;-74
2023/10/08 11:46:39;;;;;;;19.35;5.63;;;17.50;99.90;;;;;;4978795;28;20483;-73
2023/10/08 11:49:17;;;;;;;16.35;5.90;;;17.40;99.90;;;;;;4995867;28;20038;-74
2023/10/08 11:51:43;;;;;;;16.42;5.90;;;17.50;99.90;;;;;;4996536;28;20033;-74
2023/10/08 11:54:11;;;;;;;15.32;6.50;;;17.50;99.90;;;;;;4996559;28;20041;-74
2023/10/08 11:56:38;;;;;;;19.15;7.05;;;17.50;99.90;;;;;;4996479;28;20027;-74
2023/10/08 11:59:11;;;;;;;14.50;5.93;;;17.40;99.90;;;;;;4996823;28;20434;-74
2023/10/08 12:01:42;;;;;;;15.18;6.32;;;17.50;99.90;;;;;;4996497;28;20018;-74
2023/10/08 12:04:12;;;;;;;15.80;6.43;;;17.50;99.90;;;;;;4996773;28;20026;-74
2023/10/08 12:06:47;;;;;;;16.60;6.63;;;17.40;99.90;;;;;;4978867;28;20292;-74
2023/10/08 12:09:15;;;;;;;16.48;6.43;;;17.40;99.90;;;;;;4996572;28;20026;-74
2023/10/08 12:11:41;;;;;;;16.17;6.55;;;17.50;99.90;;;;;;4996197;28;20030;-74
2023/10/08 12:14:06;;;;;;;11.95;5.70;;;17.40;99.90;;;;;;4994760;28;20086;-73
2023/10/08 12:16:35;;;;;;;18.48;6.32;;;17.40;99.90;;;;;;4995792;28;20025;-73
2023/10/08 12:19:02;;;;;;;12.68;6.22;;;17.40;99.90;;;;;;4995879;28;20113;-74
2023/10/08 12:21:31;;;;;;;15.27;7.05;;;17.30;99.90;;;;;;4996298;28;20138;-74
2023/10/08 12:23:58;;;;;;;16.05;6.50;;;17.30;99.90;;;;;;4995983;28;20026;-74
2023/10/08 12:26:24;;;;;;;14.95;7.20;;;17.20;99.90;;;;;;4995442;28;20092;-73
2023/10/08 12:28:50;;;;;;;15.00;6.53;;;17.20;99.90;;;;;;4995826;28;20031;-73
2023/10/08 12:31:22;;;;;;;15.25;6.80;;;17.20;99.90;;;;;;4996422;28;20533;-73
2023/10/08 12:33:49;;;;;;;19.88;7.00;;;17.10;99.90;;;;;;4995992;28;20057;-73
2023/10/08 12:36:16;;;;;;;17.40;6.78;;;17.20;99.90;;;;;;4995688;28;20026;-73
2023/10/08 12:38:43;;;;;;;19.83;10.30;;;17.20;99.90;;;;;;4996036;28;20026;-73
2023/10/08 12:41:12;;;;;;;18.23;9.57;;;17.10;99.90;;;;;;4995984;28;20101;-73
2023/10/08 12:43:52;;;;;;;18.95;8.27;;;17.10;99.90;;;;;;4995901;28;20030;-73
2023/10/08 12:46:18;;;;;;;16.92;8.75;;;17.20;99.90;;;;;;4995409;28;20105;-73
2023/10/08 12:48:52;;;;;;;19.77;8.80;;;17.20;99.90;;;;;;4995415;28;20018;-73
2023/10/08 12:51:18;;;;;;;14.45;7.20;;;17.10;99.90;;;;;;4995806;28;20101;-73
2023/10/08 12:53:50;;;;;;;17.27;7.20;;;17.20;99.90;;;;;;4995335;28;20075;-73
2023/10/08 12:56:21;;;;;;;12.77;7.55;;;17.20;99.90;;;;;;4995340;28;20022;-73
2023/10/08 12:58:53;;;;;;;18.15;7.30;;;17.20;99.90;;;;;;4995291;28;20026;-73
2023/10/08 13:01:20;;;;;;;15.07;7.63;;;17.20;99.90;;;;;;4995285;28;20038;-73
2023/10/08 13:03:51;;;;;;;10.45;6.38;;;17.20;99.90;;;;;;4995251;28;20022;-73
2023/10/08 13:06:28;;;;;;;12.18;5.93;;;17.20;99.90;;;;;;4995075;28;20022;-73
2023/10/08 13:08:58;;;;;;;15.50;6.65;;;17.20;99.90;;;;;;4995183;28;20019;-73
2023/10/08 13:11:29;;;;;;;12.77;6.90;;;17.10;99.90;;;;;;4995124;28;20022;-73
2023/10/08 13:13:57;;;;;;;17.42;6.90;;;17.10;99.90;;;;;;4994964;28;20026;-73
2023/10/08 13:16:37;;;;;;;15.38;6.28;;;17.00;99.90;;;;;;4994908;28;20030;-73
2023/10/08 13:19:04;;;;;;;10.13;5.50;;;17.00;99.90;;;;;;4995070;28;20089;-73
2023/10/08 13:21:32;;;;;;;16.23;5.70;;;17.00;99.90;;;;;;4977410;28;20024;-73
2023/10/08 13:24:00;;;;;;;13.85;6.40;;;17.00;99.90;;;;;;4994831;28;20537;-73
2023/10/08 13:26:30;;;;;;;15.40;6.32;;;16.90;99.90;;;;;;4994475;28;20050;-73
2023/10/08 13:29:00;;;;;;;16.92;6.45;;;16.90;99.90;;;;;;4994856;28;20026;-73
2023/10/08 13:31:28;;;;;;;14.82;5.95;;;16.90;99.90;;;;;;4994785;28;20033;-73
2023/10/08 13:33:57;;;;;;;15.75;6.25;;;16.80;99.90;;;;;;4994623;28;20041;-73
2023/10/08 13:36:23;;;;;;;14.27;5.80;;;16.80;99.90;;;;;;4994497;28;20105;-73
2023/10/08 13:38:51;;;;;;;11.00;5.43;;;16.80;99.90;;;;;;4993661;28;20026;-73
2023/10/08 13:41:18;;;;;;;14.02;5.75;;;16.90;99.90;;;;;;4994432;28;20019;-73
2023/10/08 13:43:47;;;;;;;16.20;6.95;;;16.90;99.90;;;;;;4994360;28;20446;-73
2023/10/08 13:46:16;;;;;;;13.32;6.75;;;16.90;99.90;;;;;;4994234;28;20050;-73
2023/10/08 13:48:53;;;;;;;17.40;8.80;;;16.80;99.90;;;;;;4994009;28;20475;-73
2023/10/08 13:51:25;;;;;;;16.23;7.28;;;16.80;99.90;;;;;;4993178;28;20033;-73
2023/10/08 13:53:59;;;;;;;14.65;7.28;;;16.80;99.90;;;;;;4957738;28;20027;-73
2023/10/08 13:56:26;;;;;;;14.80;7.18;;;16.80;99.90;;;;;;4974852;28;20031;-73
2023/10/08 13:59:03;;;;;;;15.48;7.93;;;16.70;99.90;;;;;;4976198;28;20022;-72
2023/10/08 14:01:34;;;;;;;13.60;7.40;;;16.70;99.90;;;;;;4987017;28;20029;-72
2023/10/08 14:04:10;;;;;;;14.82;7.50;;;16.70;99.90;;;;;;4992222;28;20023;-72
2023/10/08 14:06:47;;;;;;;14.05;6.90;;;16.80;99.90;;;;;;4993632;28;20026;-72
2023/10/08 14:09:20;;;;;;;16.25;7.05;;;16.90;99.90;;;;;;4992853;28;20049;-73